Time;durP1;ratioP1;P1;durP2;ratioP2;P2;SDS_P1;SDS_P2;PMS_P1;PMS_P2;Temp;Humidity;BMP_temperature;BMP_pressure;BME280_temperature;BME280_humidity;BME280_pressure;Samples;Min_cycle;Max_cycle;Signal;HPM_P1;HPM_P2
2024/01/22 00:00:13;;;;;;;5.73;3.73;;;;;;;7.69;100.00;100792.50;5241767;28;20041;-74
2024/01/22 00:02:45;;;;;;;7.07;3.72;;;;;;;7.65;100.00;100779.53;5241932;28;20484;-72
2024/01/22 00:05:16;;;;;;;6.30;3.97;;;;;;;7.63;100.00;100776.09;5252112;28;20053;-72
2024/01/22 00:07:47;;;;;;;7.83;4.00;;;;;;;7.69;100.00;100741.47;5262411;28;20040;-73
2024/01/22 00:10:19;;;;;;;5.57;3.23;;;;;;;7.66;100.00;100729.38;5262553;28;20072;-73
2024/01/22 00:12:50;;;;;;;6.53;3.70;;;;;;;7.52;100.00;100738.91;5261935;28;20055;-73
2024/01/22 00:15:22;;;;;;;6.27;3.80;;;;;;;7.41;100.00;100710.38;5262308;28;20499;-73
2024/01/22 00:17:53;;;;;;;12.07;3.80;;;;;;;7.53;100.00;100719.88;5259002;28;20112;-72
2024/01/22 00:20:24;;;;;;;5.07;3.73;;;;;;;7.51;100.00;100721.59;5262130;28;20033;-73
2024/01/22 00:22:56;;;;;;;6.93;3.60;;;;;;;7.65;100.00;100740.63;5260402;28;20146;-73
2024/01/22 00:25:27;;;;;;;7.23;3.50;;;;;;;7.73;100.00;100740.59;5262386;28;20029;-73
2024/01/22 00:27:58;;;;;;;4.53;3.23;;;;;;;7.75;100.00;100741.47;5260892;28;20060;-72
2024/01/22 00:30:30;;;;;;;5.83;3.40;;;;;;;7.76;100.00;100724.16;5262058;28;20346;-73
2024/01/22 00:33:01;;;;;;;5.10;2.80;;;;;;;7.74;100.00;100703.41;5260927;28;20067;-73
2024/01/22 00:35:33;;;;;;;7.67;3.30;;;;;;;7.80;100.00;100698.19;5262185;28;20037;-73
2024/01/22 00:38:04;;;;;;;5.30;3.10;;;;;;;7.90;100.00;100706.81;5260617;28;20346;-73
2024/01/22 00:40:36;;;;;;;9.57;3.87;;;;;;;7.93;100.00;100673.06;5262120;28;20239;-73
2024/01/22 00:43:07;;;;;;;6.73;3.57;;;;;;;7.98;100.00;100689.47;5260262;28;20080;-73
2024/01/22 00:45:39;;;;;;;8.83;3.83;;;;;;;8.05;100.00;100666.97;5261991;28;20067;-73
2024/01/22 00:48:10;;;;;;;6.97;3.07;;;;;;;8.04;100.00;100684.28;5261717;28;20523;-73
2024/01/22 00:50:41;;;;;;;6.93;2.57;;;;;;;8.02;100.00;100657.47;5261568;28;20044;-74
2024/01/22 00:53:13;;;;;;;5.40;3.03;;;;;;;8.06;100.00;100676.47;5261766;28;20426;-74
2024/01/22 00:55:44;;;;;;;4.63;2.70;;;;;;;8.18;100.00;100649.63;5261887;28;20025;-74
2024/01/22 00:58:16;;;;;;;5.43;3.40;;;;;;;8.19;100.00;100651.31;5260934;28;20029;-74
2024/01/22 01:00:47;;;;;;;5.00;2.67;;;;;;;8.17;100.00;100640.09;5261780;28;20029;-74
2024/01/22 01:03:18;;;;;;;5.23;3.00;;;;;;;8.23;100.00;100666.03;5261756;28;20033;-73
2024/01/22 01:05:50;;;;;;;4.07;2.80;;;;;;;8.26;100.00;100658.22;5261751;28;20469;-74
2024/01/22 01:08:21;;;;;;;5.83;3.33;;;;;;;8.30;100.00;100652.13;5261619;28;20036;-74
2024/01/22 01:10:52;;;;;;;6.43;2.97;;;;;;;8.28;100.00;100638.28;5261657;28;20131;-75
2024/01/22 01:13:24;;;;;;;6.13;3.27;;;;;;;8.32;100.00;100645.22;5261221;28;20039;-74
2024/01/22 01:15:55;;;;;;;5.70;3.10;;;;;;;8.31;100.00;100648.66;5261462;28;20349;-74
2024/01/22 01:18:26;;;;;;;5.40;2.90;;;;;;;8.31;100.00;100640.03;5261231;28;20094;-74
2024/01/22 01:20:58;;;;;;;6.80;2.40;;;;;;;8.33;100.00;100633.06;5261201;28;20068;-74
2024/01/22 01:23:29;;;;;;;4.20;2.43;;;;;;;8.41;100.00;100626.09;5261403;28;20036;-75
2024/01/22 01:26:01;;;;;;;3.87;2.50;;;;;;;8.44;100.00;100623.53;5261369;28;20041;-74
2024/01/22 01:28:32;;;;;;;5.43;2.40;;;;;;;8.47;100.00;100625.22;5260549;28;20101;-74
2024/01/22 01:31:04;;;;;;;6.13;2.77;;;;;;;8.51;100.00;100652.91;5261301;28;20123;-75
2024/01/22 01:33:35;;;;;;;5.30;2.90;;;;;;;8.47;100.00;100620.91;5261427;28;20030;-74
2024/01/22 01:36:06;;;;;;;4.90;2.40;;;;;;;8.48;100.00;100619.16;5261127;28;20082;-73
2024/01/22 01:38:38;;;;;;;4.73;2.57;;;;;;;8.58;100.00;100581.84;5261437;28;20037;-75
2024/01/22 01:41:09;;;;;;;3.90;2.17;;;;;;;8.60;100.00;100603.50;5261193;28;20039;-74
2024/01/22 01:43:40;;;;;;;5.17;2.20;;;;;;;8.57;100.00;100587.91;5261373;28;20468;-73
2024/01/22 01:46:12;;;;;;;4.30;2.60;;;;;;;8.55;100.00;100585.34;5260097;28;20038;-74
2024/01/22 01:48:43;;;;;;;7.00;2.07;;;;;;;8.58;100.00;100597.41;5261248;28;20533;-73
2024/01/22 01:51:15;;;;;;;4.53;2.50;;;;;;;8.59;100.00;100570.56;5261214;28;20093;-73
2024/01/22 01:53:47;;;;;;;4.18;2.50;;;;;;;8.58;100.00;100564.53;5260366;28;20494;-73
2024/01/22 01:56:19;;;;;;;3.78;2.50;;;;;;;8.58;100.00;100569.72;5260711;28;20037;-73
2024/01/22 01:58:51;;;;;;;3.50;2.53;;;;;;;8.66;100.00;100579.19;5260657;28;20094;-73
2024/01/22 02:01:23;;;;;;;4.25;2.10;;;;;;;8.62;100.00;100552.38;5259762;28;20074;-73
2024/01/22 02:03:54;;;;;;;7.70;3.50;;;;;;;8.67;100.00;100563.56;5261170;28;20074;-74
2024/01/22 02:06:26;;;;;;;3.37;2.10;;;;;;;8.69;100.00;100541.03;5261093;28;20040;-72
2024/01/22 02:08:57;;;;;;;5.57;3.40;;;;;;;8.68;100.00;100564.47;5260926;28;20082;-73
2024/01/22 02:11:29;;;;;;;5.17;2.43;;;;;;;8.73;100.00;100583.47;5259408;28;20033;-73
2024/01/22 02:14:00;;;;;;;4.00;2.30;;;;;;;8.72;100.00;100537.56;5260875;28;20021;-73
2024/01/22 02:16:32;;;;;;;4.17;2.70;;;;;;;8.73;100.00;100540.13;5261237;28;20435;-73
2024/01/22 02:19:03;;;;;;;5.20;3.37;;;;;;;8.78;100.00;100547.03;5276490;28;20490;-72
2024/01/22 02:21:34;;;;;;;4.40;2.53;;;;;;;8.71;100.00;100522.81;5260934;28;20040;-71
2024/01/22 02:24:06;;;;;;;3.70;2.30;;;;;;;8.78;100.00;100497.66;5261800;28;20029;-72
2024/01/22 02:26:37;;;;;;;7.50;1.97;;;;;;;8.77;100.00;100512.38;5281697;28;20128;-72
2024/01/22 02:29:08;;;;;;;4.10;2.27;;;;;;;8.72;100.00;100515.00;5281274;28;20472;-74
2024/01/22 02:31:40;;;;;;;2.67;1.93;;;;;;;8.74;100.00;100502.88;5281714;28;20037;-74
2024/01/22 02:34:11;;;;;;;4.97;2.50;;;;;;;8.78;100.00;100495.06;5282318;28;20067;-74
2024/01/22 02:36:45;;;;;;;3.27;2.10;;;;;;;8.73;100.00;100495.97;5285330;28;20035;-74
2024/01/22 02:39:16;;;;;;;4.35;2.70;;;;;;;8.80;100.00;100486.34;5285371;28;20082;-74
2024/01/22 02:41:48;;;;;;;2.93;1.90;;;;;;;8.71;100.00;100465.66;5285407;28;20052;-73
2024/01/22 02:44:19;;;;;;;5.67;2.43;;;;;;;8.60;100.00;100462.31;5285694;28;20055;-72
2024/01/22 02:46:50;;;;;;;3.60;1.97;;;;;;;8.60;100.00;100465.78;5284998;28;20402;-74
2024/01/22 02:49:22;;;;;;;3.93;2.10;;;;;;;8.73;100.00;100471.72;5272851;28;20040;-73
2024/01/22 02:51:53;;;;;;;4.80;2.50;;;;;;;8.69;100.00;100431.03;5264367;28;20033;-74
2024/01/22 02:54:25;;;;;;;4.07;2.20;;;;;;;8.70;100.00;100432.78;5264033;28;20025;-74
2024/01/22 02:56:56;;;;;;;3.27;2.30;;;;;;;8.72;100.00;100424.06;5262249;28;20051;-74
2024/01/22 02:59:27;;;;;;;4.60;2.10;;;;;;;8.69;100.00;100421.50;5263960;28;20029;-74
2024/01/22 03:01:59;;;;;;;5.77;2.53;;;;;;;8.51;100.00;100408.72;5246566;28;20097;-73
2024/01/22 03:04:30;;;;;;;3.93;2.10;;;;;;;8.32;100.00;100403.69;5264182;28;20437;-74
2024/01/22 03:07:02;;;;;;;5.27;2.17;;;;;;;8.24;100.00;100423.63;5264494;28;20029;-74
2024/01/22 03:09:33;;;;;;;5.80;2.47;;;;;;;8.16;100.00;100404.69;5263990;28;20036;-73
2024/01/22 03:12:05;;;;;;;2.63;2.13;;;;;;;8.19;100.00;100402.06;5262362;28;20033;-73
2024/01/22 03:14:36;;;;;;;3.95;2.60;;;;;;;8.11;100.00;100402.13;5264251;28;20031;-74
2024/01/22 03:17:09;;;;;;;4.73;2.70;;;;;;;8.12;100.00;100380.47;5263946;28;20030;-73
2024/01/22 03:19:41;;;;;;;;;;;;;;;8.09;100.00;100370.13;5264257;28;20476;-74
2024/01/22 03:22:12;;;;;;;3.95;2.42;;;;;;;8.08;100.00;100373.59;5263496;28;19970;-74
2024/01/22 03:24:46;;;;;;;4.77;2.53;;;;;;;8.10;100.00;100378.75;5263710;28;20108;-73
2024/01/22 03:27:17;;;;;;;5.07;2.42;;;;;;;8.12;100.00;100377.88;5263078;28;20040;-75
2024/01/22 03:29:49;;;;;;;3.60;2.53;;;;;;;8.08;100.00;100370.13;5263939;28;20025;-73
2024/01/22 03:32:20;;;;;;;3.83;2.40;;;;;;;8.09;100.00;100364.09;5262425;28;20121;-72
2024/01/22 03:34:51;;;;;;;5.23;2.73;;;;;;;8.08;100.00;100360.59;5262095;28;20500;-73
2024/01/22 03:37:23;;;;;;;7.00;2.87;;;;;;;8.12;100.00;100372.69;5262200;28;20040;-73
2024/01/22 03:39:55;;;;;;;4.22;2.50;;;;;;;8.19;100.00;100374.38;5263472;28;20071;-73
2024/01/22 03:42:26;;;;;;;4.43;2.40;;;;;;;8.25;100.00;100357.84;5262967;28;20088;-74
2024/01/22 03:44:58;;;;;;;3.40;2.10;;;;;;;8.20;100.00;100362.25;5263666;28;20045;-73
2024/01/22 03:47:29;;;;;;;5.33;2.57;;;;;;;8.20;100.00;100354.47;5262134;28;20063;-73
2024/01/22 03:50:03;;;;;;;4.30;2.53;;;;;;;8.26;100.00;100351.81;5262931;28;20037;-72
2024/01/22 03:52:34;;;;;;;2.95;2.00;;;;;;;8.33;100.00;100350.84;5262943;28;20025;-73
2024/01/22 03:55:07;;;;;;;6.87;1.87;;;;;;;8.41;100.00;100345.56;5261701;28;20472;-73
2024/01/22 03:57:38;;;;;;;;;;;;;;;8.37;100.00;100325.69;5262814;28;20419;-74
2024/01/22 04:00:10;;;;;;;3.47;2.10;;;;;;;8.44;100.00;100324.81;5262877;28;19924;-73
2024/01/22 04:02:41;;;;;;;2.73;1.87;;;;;;;8.48;100.00;100338.59;5262560;28;20035;-73
2024/01/22 04:05:13;;;;;;;6.43;2.67;;;;;;;8.47;100.00;100326.47;5262484;28;20499;-73
2024/01/22 04:07:44;;;;;;;3.40;2.03;;;;;;;8.41;100.00;100330.00;5262812;28;20043;-73
2024/01/22 04:10:16;;;;;;;5.20;2.00;;;;;;;8.45;100.00;100338.63;5263020;28;20032;-73
2024/01/22 04:12:47;;;;;;;3.00;2.03;;;;;;;8.44;100.00;100330.00;5262895;28;20036;-73
2024/01/22 04:15:18;;;;;;;2.77;1.93;;;;;;;8.40;100.00;100326.53;5262814;28;20029;-74
2024/01/22 04:17:50;;;;;;;3.70;2.17;;;;;;;8.44;100.00;100326.53;5262428;28;20021;-73
2024/01/22 04:20:21;;;;;;;7.07;2.57;;;;;;;8.44;100.00;100314.41;5262794;28;20036;-74
2024/01/22 04:22:52;;;;;;;4.67;2.23;;;;;;;8.46;100.00;100323.03;5262769;28;20059;-74
2024/01/22 04:25:24;;;;;;;2.93;2.50;;;;;;;8.51;100.00;100318.63;5262332;28;20028;-73
2024/01/22 04:27:56;;;;;;;4.43;2.03;;;;;;;8.55;100.00;100329.88;5261940;28;20033;-72
2024/01/22 04:30:28;;;;;;;4.65;2.00;;;;;;;8.61;100.00;100314.19;5262056;28;20040;-73
2024/01/22 04:32:59;;;;;;;4.37;2.73;;;;;;;8.71;100.00;100323.63;5262030;28;20170;-73
2024/01/22 04:35:30;;;;;;;2.50;1.73;;;;;;;8.76;100.00;100313.16;5262313;28;20044;-72
2024/01/22 04:38:02;;;;;;;2.40;1.90;;;;;;;8.81;100.00;100341.69;5261608;28;20032;-74
2024/01/22 04:40:33;;;;;;;5.10;1.87;;;;;;;8.85;100.00;100318.22;5261966;28;20033;-74
2024/01/22 04:43:04;;;;;;;4.80;1.93;;;;;;;8.82;100.00;100312.22;5262191;28;20139;-74
2024/01/22 04:45:36;;;;;;;3.03;2.00;;;;;;;8.92;100.00;100321.63;5262173;28;20071;-74
2024/01/22 04:48:07;;;;;;;2.63;1.60;;;;;;;8.97;100.00;100337.13;5261729;28;20174;-74
2024/01/22 04:50:39;;;;;;;3.17;1.60;;;;;;;9.16;100.00;100302.22;5262105;28;20107;-74
2024/01/22 04:53:10;;;;;;;2.80;1.70;;;;;;;9.12;100.00;100309.19;5260800;28;20037;-74
2024/01/22 04:55:41;;;;;;;3.60;1.60;;;;;;;9.19;100.00;100316.91;5261925;28;20115;-74
2024/01/22 04:58:13;;;;;;;3.90;1.80;;;;;;;9.30;100.00;100321.03;5260851;28;20064;-73
2024/01/22 05:00:45;;;;;;;4.17;2.20;;;;;;;9.43;100.00;100297.47;5261451;28;20033;-74
2024/01/22 05:03:16;;;;;;;3.73;1.87;;;;;;;9.43;100.00;100310.47;5260453;28;20043;-73
2024/01/22 05:05:47;;;;;;;2.33;1.30;;;;;;;9.59;100.00;100311.94;5260189;28;20025;-74
2024/01/22 05:08:19;;;;;;;4.53;1.73;;;;;;;9.67;100.00;100311.81;5260574;28;20064;-74
2024/01/22 05:10:50;;;;;;;2.17;1.20;;;;;;;9.72;100.00;100327.34;5261313;28;20028;-73
2024/01/22 05:13:22;;;;;;;3.93;1.30;;;;;;;9.74;100.00;100330.78;5261775;28;20120;-73
2024/01/22 05:15:53;;;;;;;3.53;1.83;;;;;;;9.68;100.00;100303.13;5261669;28;20033;-74
2024/01/22 05:18:25;;;;;;;3.50;1.50;;;;;;;9.71;100.00;100304.81;5261183;28;20052;-74
2024/01/22 05:20:56;;;;;;;2.67;1.23;;;;;;;9.70;100.00;100298.75;5261567;28;20166;-73
2024/01/22 05:23:28;;;;;;;2.73;1.53;;;;;;;9.64;100.00;100306.66;5261627;28;20036;-73
2024/01/22 05:25:59;;;;;;;2.93;1.40;;;;;;;9.79;100.00;100303.81;5242636;28;20033;-73
2024/01/22 05:28:30;;;;;;;2.63;1.30;;;;;;;9.96;100.00;100310.44;5240208;28;20094;-73
2024/01/22 05:31:02;;;;;;;3.03;1.50;;;;;;;9.95;100.00;100316.53;5240449;28;20029;-74
2024/01/22 05:33:33;;;;;;;4.27;1.97;;;;;;;9.84;100.00;100317.59;5240727;28;20500;-73
2024/01/22 05:36:05;;;;;;;3.63;1.53;;;;;;;9.79;100.00;100315.97;5240503;28;20029;-74
2024/01/22 05:38:42;;;;;;;2.50;1.20;;;;;;;9.78;100.00;100317.69;5239195;28;20595;-73
2024/01/22 05:41:15;;;;;;;2.08;1.40;;;;;;;9.61;100.00;100320.59;5240307;28;20048;-74
2024/01/22 05:43:46;;;;;;;3.22;1.65;;;;;;;9.53;100.00;100308.56;5240214;28;20054;-73
2024/01/22 05:46:18;;;;;;;4.03;1.97;;;;;;;9.49;100.00;100299.97;5239390;28;20477;-73
2024/01/22 05:48:49;;;;;;;3.67;1.60;;;;;;;9.45;100.00;100298.28;5240381;28;20025;-72
2024/01/22 05:51:20;;;;;;;1.93;1.50;;;;;;;9.46;100.00;100300.88;5240443;28;20109;-72
2024/01/22 05:53:52;;;;;;;7.97;1.90;;;;;;;9.42;100.00;100313.97;5240445;28;20033;-73
2024/01/22 05:56:25;;;;;;;4.80;2.77;;;;;;;9.39;100.00;100304.47;5240382;28;20033;-73
2024/01/22 05:58:57;;;;;;;5.18;1.95;;;;;;;9.36;100.00;100314.91;5239794;28;20022;-72
2024/01/22 06:01:31;;;;;;;3.47;1.83;;;;;;;9.31;100.00;100312.38;5240529;28;20433;-72
2024/01/22 06:04:04;;;;;;;2.72;1.80;;;;;;;9.38;100.00;100296.69;5240087;28;20369;-71
2024/01/22 06:06:36;;;;;;;6.43;3.05;;;;;;;9.34;100.00;100329.69;5240021;28;20044;-72
2024/01/22 06:09:08;;;;;;;4.05;1.88;;;;;;;9.35;100.00;100344.41;5240765;28;20065;-72
2024/01/22 06:11:39;;;;;;;2.67;1.70;;;;;;;9.32;100.00;100323.63;5244440;28;20029;-72
2024/01/22 06:14:10;;;;;;;3.07;2.00;;;;;;;9.33;100.00;100332.31;5244507;28;20061;-72
2024/01/22 06:16:46;;;;;;;4.07;2.10;;;;;;;9.30;100.00;100338.41;5244400;28;20037;-72
2024/01/22 06:19:17;;;;;;;5.50;2.10;;;;;;;9.32;100.00;100336.63;5243979;28;20090;-71
2024/01/22 06:21:48;;;;;;;5.47;2.43;;;;;;;9.31;100.00;100316.72;5243927;28;20396;-71
2024/01/22 06:24:20;;;;;;;4.80;1.87;;;;;;;9.28;100.00;100301.16;5244311;28;20029;-72
2024/01/22 06:26:51;;;;;;;4.97;2.43;;;;;;;9.28;100.00;100311.56;5244005;28;20448;-72
2024/01/22 06:29:22;;;;;;;10.17;3.53;;;;;;;9.26;100.00;100313.34;5243571;28;20182;-72
2024/01/22 06:31:54;;;;;;;5.60;2.80;;;;;;;9.28;100.00;100316.78;5259102;28;20036;-72
2024/01/22 06:34:25;;;;;;;5.37;3.40;;;;;;;9.27;100.00;100321.13;5264755;28;20039;-72
2024/01/22 06:36:56;;;;;;;4.17;2.20;;;;;;;9.28;100.00;100316.78;5263707;28;20059;-71
2024/01/22 06:39:28;;;;;;;4.30;2.50;;;;;;;9.30;100.00;100315.00;5264190;28;20113;-71
2024/01/22 06:41:59;;;;;;;3.20;1.90;;;;;;;9.30;100.00;100312.41;5264583;28;20380;-71
2024/01/22 06:44:30;;;;;;;4.10;2.00;;;;;;;9.29;100.00;100311.53;5264074;28;20052;-71
2024/01/22 06:47:03;;;;;;;3.93;1.87;;;;;;;9.31;100.00;100330.59;5264008;28;20238;-71
2024/01/22 06:49:34;;;;;;;4.55;1.90;;;;;;;9.29;100.00;100336.72;5263103;28;20044;-71
2024/01/22 06:52:06;;;;;;;3.30;1.97;;;;;;;9.33;100.00;100356.56;5264418;28;20460;-71
2024/01/22 06:54:37;;;;;;;2.03;1.70;;;;;;;9.39;100.00;100343.47;5264235;28;20048;-71
2024/01/22 06:57:08;;;;;;;4.03;2.20;;;;;;;9.40;100.00;100355.63;5264186;28;20461;-72
2024/01/22 06:59:40;;;;;;;3.40;1.60;;;;;;;9.36;100.00;100346.13;5263679;28;20021;-71
2024/01/22 07:02:11;;;;;;;4.20;1.80;;;;;;;9.33;100.00;100358.31;5262143;28;20037;-72
2024/01/22 07:04:43;;;;;;;4.87;2.27;;;;;;;9.29;100.00;100366.16;5264193;28;20025;-72
2024/01/22 07:07:14;;;;;;;2.90;1.87;;;;;;;9.39;100.00;100345.22;5261446;28;20033;-72
2024/01/22 07:09:45;;;;;;;2.90;1.90;;;;;;;9.35;100.00;100354.78;5263337;28;20099;-72
2024/01/22 07:12:19;;;;;;;3.57;1.70;;;;;;;9.35;100.00;100385.16;5262514;28;21301;-73
2024/01/22 07:14:51;;;;;;;3.38;2.08;;;;;;;9.41;100.00;100348.66;5264559;28;20412;-72
2024/01/22 07:17:22;;;;;;;4.73;2.13;;;;;;;9.40;100.00;100337.41;5274085;28;20021;-72
2024/01/22 07:19:53;;;;;;;4.63;2.30;;;;;;;9.41;100.00;100341.72;5274040;28;20048;-71
2024/01/22 07:22:25;;;;;;;5.70;2.33;;;;;;;9.38;100.00;100346.94;5273932;28;20025;-72
2024/01/22 07:24:56;;;;;;;6.63;2.30;;;;;;;9.36;100.00;100353.94;5274723;28;20031;-71
2024/01/22 07:27:28;;;;;;;5.27;2.27;;;;;;;9.39;100.00;100345.22;5274894;28;20029;-72
2024/01/22 07:29:59;;;;;;;7.27;2.57;;;;;;;9.41;100.00;100359.91;5275041;28;20031;-71
2024/01/22 07:32:33;;;;;;;5.80;2.43;;;;;;;9.49;100.00;100352.84;5273743;28;20472;-72
2024/01/22 07:35:09;;;;;;;5.47;2.15;;;;;;;9.49;100.00;100365.00;5273639;28;20444;-72
2024/01/22 07:37:46;;;;;;;5.50;2.10;;;;;;;9.44;100.00;100346.88;5273780;28;20033;-72
2024/01/22 07:40:18;;;;;;;8.23;2.58;;;;;;;9.51;100.00;100365.00;5267863;28;20029;-71
2024/01/22 07:42:49;;;;;;;8.30;2.50;;;;;;;9.48;100.00;100358.97;5273496;28;20102;-72
2024/01/22 07:45:21;;;;;;;8.20;2.57;;;;;;;9.46;100.00;100358.09;5267753;28;20143;-72
2024/01/22 07:47:52;;;;;;;7.40;2.20;;;;;;;9.46;100.00;100357.25;5275646;28;20113;-71
2024/01/22 07:50:24;;;;;;;6.83;2.77;;;;;;;9.48;100.00;100355.47;5271124;28;20036;-72
2024/01/22 07:52:55;;;;;;;9.37;2.40;;;;;;;9.49;100.00;100359.81;5269278;28;20024;-72
2024/01/22 07:55:27;;;;;;;8.83;2.77;;;;;;;9.47;100.00;100366.78;5262188;28;20119;-72
2024/01/22 07:57:58;;;;;;;9.17;3.47;;;;;;;9.51;100.00;100354.59;5243358;28;20131;-71
2024/01/22 08:00:33;;;;;;;10.33;3.90;;;;;;;9.53;100.00;100355.41;5241311;28;20495;-71
2024/01/22 08:03:04;;;;;;;11.07;2.88;;;;;;;9.48;100.00;100347.66;5253707;28;20036;-71
2024/01/22 08:05:35;;;;;;;13.10;3.77;;;;;;;9.51;100.00;100365.00;5245518;28;20037;-70
2024/01/22 08:08:09;;;;;;;14.80;3.83;;;;;;;9.45;100.00;100346.00;5260654;28;20041;-71
2024/01/22 08:10:40;;;;;;;18.77;5.28;;;;;;;9.51;100.00;100365.00;5256815;28;20034;-71
2024/01/22 08:13:12;;;;;;;15.67;4.13;;;;;;;9.47;100.00;100379.78;5244060;28;20044;-71
2024/01/22 08:15:44;;;;;;;20.47;5.13;;;;;;;9.52;100.00;100361.50;5245279;28;20025;-71
2024/01/22 08:18:16;;;;;;;17.17;5.53;;;;;;;9.54;100.00;100364.94;5241339;28;20025;-71
2024/01/22 08:20:47;;;;;;;22.30;5.72;;;;;;;9.54;100.00;100373.59;5255778;28;20512;-71
2024/01/22 08:23:19;;;;;;;18.80;5.47;;;;;;;9.52;100.00;100361.50;5241689;28;20148;-72
2024/01/22 08:25:50;;;;;;;20.87;4.73;;;;;;;9.51;100.00;100373.66;5241529;28;20029;-71
2024/01/22 08:28:22;;;;;;;21.37;4.90;;;;;;;9.50;100.00;100374.53;5243585;28;20076;-70
2024/01/22 08:30:55;;;;;;;23.50;4.13;;;;;;;9.48;100.00;100390.19;5244697;28;20029;-70
2024/01/22 08:33:27;;;;;;;16.17;4.57;;;;;;;9.44;100.00;100370.28;5245958;28;20471;-70
2024/01/22 08:35:58;;;;;;;17.90;5.53;;;;;;;9.47;100.00;100382.41;5257151;28;20082;-69
2024/01/22 08:38:29;;;;;;;18.43;5.17;;;;;;;9.46;100.00;100397.13;5261672;28;20041;-70
2024/01/22 08:41:01;;;;;;;20.57;5.03;;;;;;;9.46;100.00;100412.72;5274056;28;20093;-70
2024/01/22 08:43:32;;;;;;;20.83;4.53;;;;;;;9.40;100.00;100410.25;5281892;28;20546;-70
2024/01/22 08:46:04;;;;;;;15.47;4.60;;;;;;;9.40;100.00;100404.16;5282960;28;20064;-70
2024/01/22 08:48:35;;;;;;;23.70;5.97;;;;;;;9.35;100.00;100422.44;5283069;28;20048;-70
2024/01/22 08:51:07;;;;;;;15.07;4.13;;;;;;;9.31;100.00;100423.38;5283068;28;20413;-70
2024/01/22 08:53:38;;;;;;;16.57;4.63;;;;;;;9.34;100.00;100428.53;5282990;28;20062;-71
2024/01/22 08:56:10;;;;;;;19.53;5.37;;;;;;;9.30;100.00;100425.09;5282547;28;20032;-70
2024/01/22 08:58:41;;;;;;;15.50;4.70;;;;;;;9.29;100.00;100410.38;5282374;28;20037;-70
2024/01/22 09:01:12;;;;;;;20.43;5.40;;;;;;;9.30;100.00;100416.44;5282815;28;20127;-70
2024/01/22 09:03:44;;;;;;;19.57;5.13;;;;;;;9.27;100.00;100414.75;5282791;28;20032;-71
2024/01/22 09:06:15;;;;;;;20.07;4.73;;;;;;;9.27;100.00;100417.34;5282723;28;20036;-70
2024/01/22 09:08:46;;;;;;;24.63;5.63;;;;;;;9.25;100.00;100405.25;5282675;28;20044;-70
2024/01/22 09:11:18;;;;;;;19.40;4.97;;;;;;;9.20;100.00;100413.09;5282617;28;20089;-70
2024/01/22 09:13:49;;;;;;;15.00;4.50;;;;;;;9.21;100.00;100398.34;5282615;28;20067;-70
2024/01/22 09:16:21;;;;;;;20.30;5.07;;;;;;;9.20;100.00;100404.44;5282517;28;20074;-70
2024/01/22 09:18:53;;;;;;;13.77;4.40;;;;;;;9.18;100.00;100409.66;5282589;28;20056;-71
2024/01/22 09:21:24;;;;;;;22.87;5.83;;;;;;;9.22;100.00;100400.94;5282605;28;20029;-71
2024/01/22 09:23:56;;;;;;;19.00;5.67;;;;;;;9.19;100.00;100389.72;5282519;28;20032;-71
2024/01/22 09:26:27;;;;;;;21.07;6.23;;;;;;;9.21;100.00;100407.03;5282516;28;20039;-71
2024/01/22 09:28:58;;;;;;;23.23;5.23;;;;;;;9.20;100.00;100407.91;5282061;28;20037;-71
2024/01/22 09:31:30;;;;;;;15.90;4.97;;;;;;;9.18;100.00;100404.47;5282508;28;20124;-71
2024/01/22 09:34:01;;;;;;;19.80;4.60;;;;;;;9.21;100.00;100395.75;5282426;28;20120;-71
2024/01/22 09:36:32;;;;;;;21.83;5.87;;;;;;;9.23;100.00;100407.00;5282242;28;20037;-70
2024/01/22 09:39:05;;;;;;;18.13;4.80;;;;;;;9.24;100.00;100395.72;5280990;28;20025;-70
2024/01/22 09:41:37;;;;;;;19.10;4.82;;;;;;;9.24;100.00;100403.50;5282344;28;20417;-71
2024/01/22 09:44:08;;;;;;;15.10;4.43;;;;;;;9.25;100.00;100413.91;5282674;28;20055;-71
2024/01/22 09:46:41;;;;;;;17.77;5.30;;;;;;;9.23;100.00;100407.84;5286508;28;20037;-71
2024/01/22 09:49:12;;;;;;;20.88;4.68;;;;;;;9.24;100.00;100412.19;5286002;28;20036;-71
2024/01/22 09:51:45;;;;;;;15.33;5.07;;;;;;;9.30;100.00;100425.09;5286313;28;20344;-71
2024/01/22 09:54:18;;;;;;;13.90;3.72;;;;;;;9.31;100.00;100436.38;5286662;28;20032;-71
2024/01/22 09:56:54;;;;;;;14.65;4.15;;;;;;;9.30;100.00;100460.66;5286256;28;20120;-71
2024/01/22 09:59:28;;;;;;;15.85;4.32;;;;;;;9.28;100.00;100442.47;5285675;28;20072;-72
2024/01/22 10:02:01;;;;;;;13.85;4.05;;;;;;;9.30;100.00;100432.03;5286280;28;20443;-71
2024/01/22 10:04:32;;;;;;;20.85;4.93;;;;;;;9.31;100.00;100447.63;5286158;28;20116;-70
2024/01/22 10:07:05;;;;;;;12.67;4.10;;;;;;;9.35;100.00;100471.00;5286196;28;20111;-71
2024/01/22 10:09:36;;;;;;;;;;;;;;;9.33;100.00;100445.00;5286690;28;20024;-71
2024/01/22 10:12:08;;;;;;;9.60;3.08;;;;;;;9.37;100.00;100454.50;5286103;28;19991;-71
2024/01/22 10:14:41;;;;;;;9.77;3.97;;;;;;;9.39;100.00;100452.75;5286151;28;20031;-71
2024/01/22 10:17:25;;;;;;;10.93;3.33;;;;;;;9.41;100.00;100461.38;5285893;28;20028;-71
2024/01/22 10:20:06;;;;;;;8.80;2.97;;;;;;;9.37;100.00;100483.13;5285955;28;20021;-72
2024/01/22 10:22:37;;;;;;;14.05;3.60;;;;;;;9.36;100.00;100516.97;5285862;28;20037;-70
2024/01/22 10:25:09;;;;;;;10.90;3.10;;;;;;;9.05;100.00;100545.91;5286068;28;20055;-70
2024/01/22 10:27:40;;;;;;;17.97;4.73;;;;;;;8.37;100.00;100573.31;5285466;28;20083;-72
2024/01/22 10:30:14;;;;;;;19.40;5.97;;;;;;;7.93;100.00;100566.66;5284367;28;20060;-71
2024/01/22 10:32:45;;;;;;;21.48;5.40;;;;;;;7.75;100.00;100631.63;5285563;28;20478;-69
2024/01/22 10:35:22;;;;;;;19.63;7.00;;;;;;;7.63;100.00;100565.06;5285663;28;20114;-70
2024/01/22 10:38:13;;;;;;;19.77;6.57;;;;;;;7.58;100.00;100549.53;5285385;28;20033;-71
2024/01/22 10:40:46;;;;;;;26.35;6.63;;;;;;;7.56;100.00;100553.84;5285390;28;20029;-71
2024/01/22 10:43:22;;;;;;;23.13;6.10;;;;;;;7.60;100.00;100560.75;5285154;28;20052;-70
2024/01/22 10:45:55;;;;;;;26.92;7.15;;;;;;;7.60;100.00;100557.28;5285605;28;20421;-70
2024/01/22 10:48:28;;;;;;;35.28;9.20;;;;;;;7.62;100.00;100558.16;5285261;28;20483;-71
2024/01/22 10:51:01;;;;;;;33.90;8.63;;;;;;;7.59;100.00;100551.25;5285453;28;20024;-71
2024/01/22 10:53:32;;;;;;;29.48;7.60;;;;;;;7.59;100.00;100568.56;5285005;28;20043;-71
2024/01/22 10:56:17;;;;;;;31.20;7.93;;;;;;;7.62;100.00;100556.44;5284964;28;20032;-71
2024/01/22 10:58:50;;;;;;;29.35;9.25;;;;;;;7.69;100.00;100551.22;5284984;28;20120;-71
2024/01/22 11:01:23;;;;;;;37.08;8.90;;;;;;;7.72;100.00;100554.66;5284792;28;20032;-71
2024/01/22 11:03:55;;;;;;;40.25;9.15;;;;;;;7.75;100.00;100556.38;5285162;28;20039;-71
2024/01/22 11:06:31;;;;;;;34.10;8.02;;;;;;;7.80;100.00;100554.63;5285107;28;20473;-72
2024/01/22 11:09:04;;;;;;;30.77;6.90;;;;;;;7.84;100.00;100552.00;5285096;28;20032;-72
2024/01/22 11:11:40;;;;;;;38.80;9.35;;;;;;;7.90;100.00;100569.25;5284500;28;20025;-71
2024/01/22 11:14:11;;;;;;;36.63;9.10;;;;;;;7.87;100.00;100569.28;5284610;28;20444;-71
2024/01/22 11:16:42;;;;;;;32.63;8.07;;;;;;;7.87;100.00;100569.28;5284719;28;20032;-71
2024/01/22 11:19:22;;;;;;;40.33;9.00;;;;;;;7.89;100.00;100588.31;5283550;28;20179;-71
2024/01/22 11:21:53;;;;;;;32.35;8.57;;;;;;;7.93;100.00;100584.81;5286799;28;20032;-71
2024/01/22 11:24:24;;;;;;;39.50;8.57;;;;;;;7.97;100.00;100607.31;5284746;28;20036;-71
2024/01/22 11:26:56;;;;;;;42.27;10.90;;;;;;;8.00;100.00;100599.50;5285022;28;20021;-70
2024/01/22 11:29:28;;;;;;;40.60;10.07;;;;;;;8.01;100.00;100608.16;5283868;28;20032;-70
2024/01/22 11:32:26;;;;;;;37.53;11.25;;;;;;;8.01;100.00;100602.97;5284776;28;20460;-71
2024/01/22 11:35:00;;;;;;;43.22;9.43;;;;;;;8.05;100.00;100599.50;5284734;28;20359;-71
2024/01/22 11:37:36;;;;;;;39.47;10.70;;;;;;;8.01;100.00;100598.63;5284283;28;20025;-70
2024/01/22 11:40:08;;;;;;;46.22;11.48;;;;;;;8.00;100.00;100615.09;5284611;28;20028;-71
2024/01/22 11:42:39;;;;;;;41.87;12.40;;;;;;;8.02;100.00;100615.94;5284086;28;20115;-70
2024/01/22 11:45:13;;;;;;;41.53;12.03;;;;;;;8.32;100.00;100619.25;5284369;28;20037;-71